Time;durP1;ratioP1;P1;durP2;ratioP2;P2;SDS_P1;SDS_P2;PMS_P1;PMS_P2;Temp;Humidity;BMP_temperature;BMP_pressure;BME280_temperature;BME280_humidity;BME280_pressure;Samples;Min_cycle;Max_cycle;Signal;HPM_P1;HPM_P2
2023/01/03 00:01:24;;;;;;;19.80;13.40;;;7.50;99.90;;;;;;5024299;28;20489;-83
2023/01/03 00:03:56;;;;;;;20.00;12.27;;;7.40;99.90;;;;;;5020867;28;20824;-81
2023/01/03 00:06:25;;;;;;;20.80;12.87;;;7.30;99.90;;;;;;5020291;28;20519;-82
2023/01/03 00:08:55;;;;;;;16.90;12.03;;;7.30;99.90;;;;;;5018185;28;20930;-82
2023/01/03 00:12:22;;;;;;;17.70;11.50;;;7.30;99.90;;;;;;5024862;28;21028;-83
2023/01/03 00:14:15;;;;;;;22.57;12.27;;;7.20;99.90;;;;;;5041302;28;20453;-81
2023/01/03 00:16:42;;;;;;;17.47;10.30;;;7.10;99.90;;;;;;5028308;28;20490;-81
2023/01/03 00:19:10;;;;;;;16.97;10.97;;;7.10;99.90;;;;;;5030574;28;20553;-80
2023/01/03 00:21:37;;;;;;;15.77;10.03;;;7.00;99.90;;;;;;5031892;28;20850;-80
2023/01/03 00:24:07;;;;;;;16.33;10.40;;;7.00;99.90;;;;;;5032135;28;20460;-81
2023/01/03 00:26:37;;;;;;;16.50;9.90;;;7.00;99.90;;;;;;5026016;28;20963;-81
2023/01/03 00:29:05;;;;;;;13.90;9.23;;;6.90;99.90;;;;;;5019505;28;20851;-81
2023/01/03 00:31:35;;;;;;;18.03;9.40;;;6.90;99.90;;;;;;5020387;28;20456;-82
2023/01/03 00:34:05;;;;;;;16.73;7.83;;;6.90;99.90;;;;;;5026483;28;20528;-84
2023/01/03 00:36:36;;;;;;;15.17;9.10;;;6.90;99.90;;;;;;5019096;28;20553;-81
2023/01/03 00:39:03;;;;;;;10.93;6.80;;;6.90;99.90;;;;;;5017817;28;20558;-83
2023/01/03 00:41:32;;;;;;;11.03;6.13;;;6.80;99.90;;;;;;5017784;28;20488;-82
2023/01/03 00:43:59;;;;;;;11.33;7.00;;;6.90;99.90;;;;;;5022221;28;20459;-85
2023/01/03 00:46:26;;;;;;;15.63;6.97;;;6.80;99.90;;;;;;5027301;28;20458;-82
2023/01/03 00:48:53;;;;;;;9.03;6.03;;;6.80;99.90;;;;;;5027972;28;20488;-81
2023/01/03 00:51:23;;;;;;;10.20;6.03;;;6.70;99.90;;;;;;5074100;22;20500;-79
2023/01/03 00:53:52;;;;;;;14.10;6.10;;;6.70;99.90;;;;;;5036563;28;20454;-81
2023/01/03 00:56:20;;;;;;;15.57;6.60;;;6.70;99.90;;;;;;5029713;28;20524;-79
2023/01/03 00:58:49;;;;;;;14.87;6.47;;;6.60;99.90;;;;;;5039056;28;20441;-80
2023/01/03 01:01:18;;;;;;;11.33;4.77;;;6.60;99.90;;;;;;5036200;28;20457;-81
2023/01/03 01:03:47;;;;;;;9.23;5.80;;;6.70;99.90;;;;;;5005518;28;20461;-80
2023/01/03 01:06:15;;;;;;;12.70;5.40;;;6.60;99.90;;;;;;5018398;28;20457;-85
2023/01/03 01:08:42;;;;;;;9.90;5.87;;;6.70;99.90;;;;;;5015459;28;20467;-79
2023/01/03 01:11:10;;;;;;;14.20;5.80;;;6.70;99.90;;;;;;5006559;28;20462;-78
2023/01/03 01:13:38;;;;;;;8.17;5.07;;;6.70;99.90;;;;;;5015480;28;20446;-78
2023/01/03 01:16:11;;;;;;;9.30;5.13;;;6.90;99.90;;;;;;5009535;28;20524;-76
2023/01/03 01:18:39;;;;;;;12.27;4.73;;;7.00;99.90;;;;;;5012126;28;20465;-79
2023/01/03 01:21:10;;;;;;;7.13;5.00;;;7.10;99.90;;;;;;5014535;28;20544;-75
2023/01/03 01:23:39;;;;;;;13.90;6.13;;;7.20;99.90;;;;;;5014366;28;20468;-78
2023/01/03 01:26:08;;;;;;;7.03;4.67;;;7.20;99.90;;;;;;5014607;28;20540;-76
2023/01/03 01:28:35;;;;;;;8.67;3.90;;;7.10;99.90;;;;;;5013749;28;20464;-78
2023/01/03 01:31:04;;;;;;;8.10;4.70;;;7.10;99.90;;;;;;5014187;28;20464;-78
2023/01/03 01:33:34;;;;;;;7.63;4.93;;;7.00;99.90;;;;;;5016014;28;20806;-78
2023/01/03 01:36:05;;;;;;;8.60;4.50;;;7.00;99.90;;;;;;5016401;28;20500;-78
2023/01/03 01:38:32;;;;;;;9.50;4.83;;;6.90;99.90;;;;;;5016830;28;20944;-79
2023/01/03 01:40:59;;;;;;;7.10;4.70;;;6.80;99.90;;;;;;5025718;28;20466;-76
2023/01/03 01:46:17;;;;;;;9.60;4.90;;;7.00;99.90;;;;;;5004619;28;20444;-77
2023/01/03 01:48:47;;;;;;;10.90;4.47;;;6.90;99.90;;;;;;5013302;28;20460;-78
2023/01/03 01:51:14;;;;;;;11.70;4.10;;;7.00;99.90;;;;;;5001661;28;21095;-78
2023/01/03 01:53:42;;;;;;;11.23;5.07;;;6.90;99.90;;;;;;5013492;28;20463;-75
2023/01/03 01:56:14;;;;;;;9.40;4.77;;;6.90;99.90;;;;;;5015238;28;20488;-78
2023/01/03 01:58:44;;;;;;;15.80;6.40;;;6.90;99.90;;;;;;5005839;28;20480;-77
2023/01/03 02:01:21;;;;;;;10.43;5.27;;;6.80;99.90;;;;;;5015110;28;20466;-76
2023/01/03 02:03:55;;;;;;;6.83;5.00;;;6.80;99.90;;;;;;5011777;28;20518;-75
2023/01/03 02:06:24;;;;;;;10.10;4.90;;;6.80;99.90;;;;;;5010423;28;20496;-79
2023/01/03 02:08:50;;;;;;;9.20;5.13;;;6.70;99.90;;;;;;5010808;28;20452;-79
2023/01/03 02:11:31;;;;;;;8.37;5.70;;;6.70;99.90;;;;;;5011306;28;20464;-76
2023/01/03 02:14:11;;;;;;;10.10;5.40;;;6.60;99.90;;;;;;5005756;28;20539;-75
2023/01/03 02:16:55;;;;;;;10.40;5.80;;;6.60;99.90;;;;;;5011368;28;20566;-78
2023/01/03 02:19:58;;;;;;;11.77;5.40;;;6.70;99.90;;;;;;5009999;28;20453;-77
2023/01/03 02:23:02;;;;;;;9.10;5.50;;;6.80;99.90;;;;;;5003306;28;20481;-76
2023/01/03 02:26:04;;;;;;;10.20;5.40;;;6.80;99.90;;;;;;5008555;28;20528;-75
2023/01/03 02:29:09;;;;;;;10.50;5.87;;;6.90;99.90;;;;;;5006988;28;20990;-79
2023/01/03 02:31:47;;;;;;;11.67;5.67;;;6.80;99.90;;;;;;5015182;28;20488;-77
2023/01/03 02:34:22;;;;;;;12.70;6.10;;;6.80;99.90;;;;;;5011232;28;20469;-76
2023/01/03 02:36:59;;;;;;;7.33;5.57;;;6.80;99.90;;;;;;5016410;28;20482;-79
2023/01/03 02:39:28;;;;;;;7.60;5.93;;;6.70;99.90;;;;;;5003365;28;20446;-76
2023/01/03 02:44:47;;;;;;;10.93;5.97;;;6.60;99.90;;;;;;5012901;28;20452;-79
2023/01/03 02:47:19;;;;;;;7.50;5.90;;;6.60;99.90;;;;;;5018698;28;20933;-78
2023/01/03 02:49:49;;;;;;;11.20;5.47;;;6.60;99.90;;;;;;5017484;28;20460;-79
2023/01/03 02:52:21;;;;;;;10.93;6.13;;;6.70;99.90;;;;;;5015406;28;20513;-77
2023/01/03 02:54:54;;;;;;;15.20;6.73;;;6.70;99.90;;;;;;5010003;28;20468;-79
2023/01/03 02:57:25;;;;;;;13.73;5.33;;;6.70;99.90;;;;;;5017307;28;20473;-78
2023/01/03 02:59:55;;;;;;;8.50;5.87;;;6.70;99.90;;;;;;5016531;28;20461;-78
2023/01/03 03:02:28;;;;;;;8.30;5.40;;;6.70;99.90;;;;;;5017478;28;20853;-77
2023/01/03 03:04:57;;;;;;;10.33;6.33;;;6.80;99.90;;;;;;5017262;28;20437;-78
2023/01/03 03:07:26;;;;;;;8.73;5.17;;;6.80;99.90;;;;;;5017295;28;20822;-76
2023/01/03 03:15:32;;;;;;;10.10;6.80;;;7.00;99.90;;;;;;5016109;28;20464;-77
2023/01/03 03:18:06;;;;;;;8.77;6.90;;;7.00;99.90;;;;;;5016423;28;20461;-78
2023/01/03 03:26:09;;;;;;;10.87;7.00;;;6.90;99.90;;;;;;5010088;28;20455;-77
2023/01/03 03:28:38;;;;;;;12.30;8.00;;;7.00;99.90;;;;;;5014316;28;20445;-77
2023/01/03 03:31:11;;;;;;;13.63;8.20;;;7.00;99.90;;;;;;5018331;28;20886;-77
2023/01/03 03:33:45;;;;;;;12.17;8.60;;;7.10;99.90;;;;;;5017020;28;20461;-76
2023/01/03 03:36:17;;;;;;;11.17;8.33;;;7.10;99.90;;;;;;5015420;28;20484;-77
2023/01/03 03:38:45;;;;;;;17.97;9.40;;;7.20;99.90;;;;;;5016461;28;20449;-77
2023/01/03 03:47:29;;;;;;;13.20;9.20;;;6.80;99.90;;;;;;4971326;28;20894;-78
2023/01/03 03:50:02;;;;;;;13.83;9.33;;;6.80;99.90;;;;;;4967266;28;20443;-77
2023/01/03 03:52:31;;;;;;;14.90;8.70;;;6.80;99.90;;;;;;5000709;28;20478;-77
2023/01/03 03:55:04;;;;;;;13.23;8.07;;;6.80;99.90;;;;;;5018083;28;20455;-77
2023/01/03 03:57:34;;;;;;;10.87;7.50;;;6.80;99.90;;;;;;5012944;28;20479;-77
2023/01/03 04:00:08;;;;;;;12.70;8.83;;;6.70;99.90;;;;;;5014282;28;20452;-78
2023/01/03 04:02:37;;;;;;;15.60;9.77;;;6.60;99.90;;;;;;5014597;28;20475;-76
2023/01/03 04:05:09;;;;;;;10.47;8.00;;;6.50;99.90;;;;;;5011271;28;20449;-75
2023/01/03 04:07:36;;;;;;;13.80;8.53;;;6.30;99.90;;;;;;5010415;28;20446;-77
2023/01/03 04:10:04;;;;;;;10.70;7.77;;;6.30;99.90;;;;;;5011734;28;20456;-77
2023/01/03 04:12:31;;;;;;;11.27;8.30;;;6.30;99.90;;;;;;5011370;28;20485;-77
2023/01/03 04:14:58;;;;;;;15.40;8.53;;;6.20;99.90;;;;;;5011470;28;20503;-76
2023/01/03 04:17:25;;;;;;;13.20;7.90;;;6.20;99.90;;;;;;5011577;28;20489;-77
2023/01/03 04:19:52;;;;;;;12.20;9.20;;;6.10;99.90;;;;;;5011705;28;20452;-77
2023/01/03 04:22:20;;;;;;;13.33;8.70;;;6.00;99.90;;;;;;5012799;28;20495;-77
2023/01/03 04:24:46;;;;;;;11.70;9.00;;;5.90;99.90;;;;;;5013215;28;20956;-76
2023/01/03 04:27:13;;;;;;;13.23;9.97;;;5.80;99.90;;;;;;5013386;28;20818;-76
2023/01/03 04:29:40;;;;;;;15.23;9.33;;;5.70;99.90;;;;;;5012644;28;20465;-78
2023/01/03 04:32:08;;;;;;;20.03;10.37;;;5.70;99.90;;;;;;5013354;28;20480;-77
2023/01/03 04:34:35;;;;;;;13.97;9.47;;;5.70;99.90;;;;;;5012988;28;20460;-76
2023/01/03 04:37:02;;;;;;;14.83;10.13;;;5.70;99.90;;;;;;5012743;28;20488;-77
2023/01/03 04:39:30;;;;;;;17.20;10.20;;;5.70;99.90;;;;;;4992599;28;20463;-77
2023/01/03 04:41:57;;;;;;;15.10;10.60;;;5.70;99.90;;;;;;5009161;28;20968;-77
2023/01/03 04:44:23;;;;;;;18.97;11.30;;;5.70;99.90;;;;;;5013043;28;20483;-77
2023/01/03 04:46:49;;;;;;;21.83;13.37;;;5.70;99.90;;;;;;5012662;28;20446;-77
2023/01/03 04:49:16;;;;;;;14.60;10.60;;;5.80;99.90;;;;;;5011671;28;20551;-77
2023/01/03 04:51:43;;;;;;;19.10;11.00;;;5.80;99.90;;;;;;5012261;28;20510;-77
2023/01/03 04:54:10;;;;;;;26.00;12.60;;;5.90;99.90;;;;;;5012706;28;20455;-77
2023/01/03 04:56:38;;;;;;;19.27;12.60;;;6.00;99.90;;;;;;5012482;28;20489;-77
2023/01/03 04:59:05;;;;;;;14.90;10.47;;;6.00;99.90;;;;;;5011826;28;20518;-77
2023/01/03 05:01:32;;;;;;;15.00;10.47;;;5.90;99.90;;;;;;5012502;28;20555;-77
2023/01/03 05:04:00;;;;;;;13.40;9.37;;;5.90;99.90;;;;;;5013263;28;21003;-77
2023/01/03 05:06:28;;;;;;;16.00;9.93;;;5.90;99.90;;;;;;5013104;28;20979;-76
2023/01/03 05:08:55;;;;;;;15.50;9.10;;;5.90;99.90;;;;;;5012280;28;20462;-77
2023/01/03 05:11:22;;;;;;;13.93;10.40;;;5.80;99.90;;;;;;5012841;28;20461;-78
2023/01/03 05:13:50;;;;;;;16.90;7.90;;;5.70;99.90;;;;;;5013073;28;20504;-76
2023/01/03 05:16:17;;;;;;;13.57;8.20;;;5.70;99.90;;;;;;5012890;28;20499;-77
2023/01/03 05:18:45;;;;;;;15.03;8.90;;;5.60;99.90;;;;;;5010188;28;20496;-77
2023/01/03 05:26:44;;;;;;;14.40;8.37;;;5.50;99.90;;;;;;5013758;28;20409;-78
2023/01/03 05:29:16;;;;;;;14.90;7.47;;;5.50;99.90;;;;;;5015228;28;20549;-77
2023/01/03 05:31:43;;;;;;;11.50;7.70;;;5.40;99.90;;;;;;5014512;28;20609;-78
2023/01/03 05:34:10;;;;;;;12.03;6.40;;;5.40;99.90;;;;;;5015930;28;20547;-76
2023/01/03 05:36:36;;;;;;;10.43;6.47;;;5.30;99.90;;;;;;5016635;28;20486;-77
2023/01/03 05:39:03;;;;;;;13.40;7.73;;;5.20;99.90;;;;;;5016703;28;20455;-77
2023/01/03 05:44:16;;;;;;;16.13;6.80;;;5.10;99.90;;;;;;5016768;28;20451;-77
2023/01/03 05:46:43;;;;;;;8.87;6.03;;;5.10;99.90;;;;;;5016088;28;20431;-77
2023/01/03 05:49:10;;;;;;;11.10;4.80;;;5.10;99.90;;;;;;5015913;28;20814;-76
2023/01/03 05:51:37;;;;;;;10.63;5.80;;;5.10;99.90;;;;;;5016551;28;20486;-78
2023/01/03 05:54:04;;;;;;;10.03;5.30;;;5.10;99.90;;;;;;5016406;28;20430;-77
2023/01/03 05:56:31;;;;;;;9.10;4.93;;;5.00;99.90;;;;;;5016439;28;20485;-77
2023/01/03 05:58:58;;;;;;;9.67;5.43;;;5.00;99.90;;;;;;5015923;28;20486;-77
2023/01/03 06:01:27;;;;;;;9.40;5.23;;;5.00;99.90;;;;;;5017309;28;20485;-77
2023/01/03 06:03:54;;;;;;;7.43;4.63;;;5.10;99.90;;;;;;5020505;28;20466;-75
2023/01/03 06:06:20;;;;;;;8.27;4.90;;;5.20;99.90;;;;;;5023124;28;20452;-77
2023/01/03 06:08:47;;;;;;;8.67;5.33;;;5.30;99.90;;;;;;5015321;28;20827;-76
2023/01/03 06:11:15;;;;;;;9.30;4.83;;;5.30;99.90;;;;;;5016119;28;20436;-77
2023/01/03 06:13:42;;;;;;;7.83;4.93;;;5.40;99.90;;;;;;5016224;28;20445;-78
2023/01/03 06:18:58;;;;;;;9.33;5.40;;;5.60;99.90;;;;;;5012279;28;20441;-77
2023/01/03 06:21:24;;;;;;;9.00;5.67;;;5.70;99.90;;;;;;5016086;28;20487;-78
2023/01/03 06:23:51;;;;;;;10.00;5.27;;;5.70;99.90;;;;;;5015869;28;20819;-77
2023/01/03 06:26:21;;;;;;;9.20;6.13;;;5.80;99.90;;;;;;5015955;28;20469;-77
2023/01/03 06:28:48;;;;;;;8.50;5.60;;;5.80;99.90;;;;;;5015030;28;20968;-77
2023/01/03 06:31:15;;;;;;;14.10;5.53;;;5.90;99.90;;;;;;5015027;28;20487;-77
2023/01/03 06:33:42;;;;;;;7.07;5.27;;;5.90;99.90;;;;;;5016099;28;20452;-77
2023/01/03 06:36:12;;;;;;;8.50;5.63;;;5.90;99.90;;;;;;5015960;28;20811;-77
2023/01/03 06:38:40;;;;;;;9.13;5.93;;;5.90;99.90;;;;;;5014742;28;20473;-77
2023/01/03 06:41:07;;;;;;;10.87;4.93;;;5.90;99.90;;;;;;5015457;28;20455;-77
2023/01/03 06:43:34;;;;;;;7.43;5.37;;;5.80;99.90;;;;;;5016028;28;20460;-77
2023/01/03 06:54:12;;;;;;;10.43;5.07;;;5.60;99.90;;;;;;5020021;28;20550;-81
2023/01/03 06:56:39;;;;;;;8.63;5.20;;;5.60;99.90;;;;;;5033214;28;20457;-80
2023/01/03 06:59:06;;;;;;;7.07;5.23;;;5.70;99.90;;;;;;5035063;28;20466;-81
2023/01/03 07:01:33;;;;;;;7.60;4.97;;;5.80;99.90;;;;;;5034890;28;20468;-81
2023/01/03 07:04:01;;;;;;;7.27;4.60;;;5.90;99.90;;;;;;5029631;28;20463;-83
2023/01/03 07:06:28;;;;;;;7.63;5.03;;;6.00;99.90;;;;;;5021258;28;20461;-82
2023/01/03 07:08:55;;;;;;;11.00;5.30;;;6.20;99.90;;;;;;5011314;28;20459;-82
2023/01/03 07:11:23;;;;;;;8.90;4.80;;;6.20;99.90;;;;;;5018763;28;20471;-82
2023/01/03 07:13:58;;;;;;;9.50;5.57;;;6.40;99.90;;;;;;5010568;28;20564;-82
2023/01/03 07:16:26;;;;;;;8.20;5.23;;;6.50;99.90;;;;;;5013235;28;20468;-82
2023/01/03 07:18:54;;;;;;;6.17;4.70;;;6.50;99.90;;;;;;5011666;28;20449;-80
2023/01/03 07:21:21;;;;;;;7.43;5.43;;;6.60;99.90;;;;;;5001833;28;20464;-82
2023/01/03 07:23:48;;;;;;;8.07;5.77;;;6.70;99.90;;;;;;5016489;28;20479;-82
2023/01/03 07:26:15;;;;;;;8.83;5.03;;;6.70;99.90;;;;;;5021423;28;20894;-82
2023/01/03 07:28:43;;;;;;;10.30;6.57;;;6.80;99.90;;;;;;5004766;28;20450;-82
2023/01/03 07:31:10;;;;;;;9.73;5.03;;;6.80;99.90;;;;;;5000536;28;20450;-82
2023/01/03 07:33:38;;;;;;;8.20;5.37;;;6.80;99.90;;;;;;5001206;28;20508;-82
2023/01/03 07:36:07;;;;;;;7.30;4.13;;;6.80;99.90;;;;;;5000523;28;20446;-82
2023/01/03 07:38:33;;;;;;;7.80;4.70;;;6.80;99.90;;;;;;4998795;28;20588;-82
2023/01/03 07:41:02;;;;;;;9.87;5.83;;;6.90;99.90;;;;;;5002832;28;20896;-81
2023/01/03 07:43:37;;;;;;;11.13;8.03;;;6.90;99.90;;;;;;5000822;28;20475;-82
2023/01/03 07:46:10;;;;;;;13.97;6.13;;;6.90;99.90;;;;;;5000964;28;20434;-82
2023/01/03 07:48:38;;;;;;;7.80;4.83;;;6.90;99.90;;;;;;5006645;28;20532;-81
2023/01/03 07:51:05;;;;;;;10.23;3.80;;;7.00;99.90;;;;;;5009676;28;20900;-82
2023/01/03 07:53:33;;;;;;;6.63;4.30;;;7.10;99.90;;;;;;5010580;28;20485;-82
2023/01/03 07:56:05;;;;;;;12.07;4.93;;;7.10;99.90;;;;;;5007253;28;21090;-81
2023/01/03 07:58:32;;;;;;;7.00;4.10;;;7.10;99.90;;;;;;5006741;28;20979;-82
2023/01/03 08:01:06;;;;;;;9.70;4.10;;;7.10;99.90;;;;;;5008151;28;20449;-82
2023/01/03 08:03:36;;;;;;;5.47;3.50;;;7.10;99.90;;;;;;5010391;28;20822;-82
2023/01/03 08:06:04;;;;;;;5.47;3.17;;;7.10;99.90;;;;;;5011870;28;20497;-82
2023/01/03 08:08:32;;;;;;;7.50;3.53;;;7.00;99.90;;;;;;5003784;28;20464;-82
2023/01/03 08:13:44;;;;;;;6.43;3.47;;;7.00;99.90;;;;;;5005831;28;20476;-83
2023/01/03 08:16:13;;;;;;;6.83;4.00;;;6.90;99.90;;;;;;5006031;28;20482;-82
2023/01/03 08:18:42;;;;;;;6.23;4.27;;;6.80;99.90;;;;;;5004853;28;20480;-82
2023/01/03 08:21:11;;;;;;;7.40;3.90;;;6.80;99.90;;;;;;5000652;28;20442;-82
2023/01/03 08:23:39;;;;;;;8.00;3.53;;;6.90;99.90;;;;;;5004370;28;21119;-82
2023/01/03 08:26:09;;;;;;;7.87;3.90;;;7.00;99.90;;;;;;5005015;28;20462;-82
2023/01/03 08:28:37;;;;;;;9.67;3.43;;;7.00;99.90;;;;;;5004918;28;20537;-82
2023/01/03 08:31:08;;;;;;;9.80;3.30;;;7.10;99.90;;;;;;5005223;28;20842;-82
2023/01/03 08:33:42;;;;;;;4.10;2.73;;;7.20;99.90;;;;;;5006293;28;20478;-82
2023/01/03 08:36:09;;;;;;;6.93;3.30;;;7.40;99.90;;;;;;5004512;28;20903;-82
2023/01/03 08:38:41;;;;;;;4.33;2.77;;;7.40;99.90;;;;;;5017725;28;20591;-81
2023/01/03 08:41:11;;;;;;;13.63;3.10;;;7.50;99.90;;;;;;5016578;28;20442;-82
2023/01/03 08:43:40;;;;;;;4.67;3.10;;;7.60;99.90;;;;;;4998582;28;20471;-82
2023/01/03 08:46:09;;;;;;;6.07;3.73;;;7.70;99.90;;;;;;4998166;28;21043;-82
2023/01/03 08:48:37;;;;;;;3.83;2.43;;;7.80;99.90;;;;;;5013101;28;21936;-83
2023/01/03 08:51:05;;;;;;;4.33;2.50;;;7.90;99.90;;;;;;5008285;28;20496;-82
2023/01/03 08:53:32;;;;;;;4.10;2.40;;;8.10;99.90;;;;;;5006552;28;20517;-82
2023/01/03 08:56:00;;;;;;;4.13;2.77;;;8.20;99.90;;;;;;5007769;28;20446;-82
2023/01/03 08:58:28;;;;;;;7.97;2.50;;;8.30;99.90;;;;;;5009708;28;21024;-83
2023/01/03 09:00:55;;;;;;;6.17;2.73;;;8.40;99.90;;;;;;5010374;28;20461;-82
2023/01/03 09:03:22;;;;;;;7.13;2.77;;;8.40;99.90;;;;;;5009616;28;20471;-82
2023/01/03 09:05:49;;;;;;;4.20;2.73;;;8.40;99.90;;;;;;5011514;28;20481;-83
2023/01/03 09:08:17;;;;;;;3.37;2.10;;;8.50;99.90;;;;;;5003310;28;20518;-82
2023/01/03 09:10:45;;;;;;;3.40;2.03;;;8.50;99.90;;;;;;5000710;28;20464;-82
2023/01/03 09:13:11;;;;;;;11.60;3.30;;;8.50;99.90;;;;;;5006098;28;20987;-82
2023/01/03 09:15:38;;;;;;;10.00;2.83;;;8.50;99.90;;;;;;5011869;28;20558;-83
2023/01/03 09:18:06;;;;;;;6.97;2.50;;;8.40;99.90;;;;;;5006691;28;21037;-83
2023/01/03 09:20:33;;;;;;;3.63;1.90;;;8.30;99.90;;;;;;5009838;28;20458;-82
2023/01/03 09:22:59;;;;;;;3.83;2.37;;;8.20;99.90;;;;;;5018920;28;20561;-82
2023/01/03 09:25:28;;;;;;;5.00;2.63;;;8.20;99.90;;;;;;5012399;28;20545;-82
2023/01/03 09:27:55;;;;;;;5.60;2.47;;;8.10;99.90;;;;;;4998721;28;21014;-82
2023/01/03 09:30:22;;;;;;;3.90;2.37;;;8.10;99.90;;;;;;5005323;28;20459;-84
2023/01/03 09:32:50;;;;;;;5.63;1.90;;;8.30;99.90;;;;;;5005591;28;20476;-84
2023/01/03 09:35:17;;;;;;;8.60;2.50;;;8.50;99.90;;;;;;5005164;28;20949;-84
2023/01/03 09:37:47;;;;;;;6.73;2.60;;;8.70;99.90;;;;;;5003687;28;21012;-84
2023/01/03 09:40:14;;;;;;;3.30;2.00;;;8.90;99.90;;;;;;5003584;28;20947;-84
2023/01/03 09:45:32;;;;;;;3.60;2.10;;;9.10;99.90;;;;;;4996007;28;20536;-83
2023/01/03 09:48:01;;;;;;;4.37;2.30;;;9.20;99.90;;;;;;5002120;28;20452;-83
2023/01/03 09:50:30;;;;;;;3.03;1.97;;;9.20;99.90;;;;;;5004029;28;20962;-83
2023/01/03 10:04:36;;;;;;;4.43;1.60;;;9.50;99.90;;;;;;5007529;28;20502;-84
2023/01/03 10:07:14;;;;;;;4.07;1.77;;;9.50;99.90;;;;;;4996818;28;20936;-84
2023/01/03 10:09:56;;;;;;;5.83;2.17;;;9.60;99.90;;;;;;5002836;28;20860;-84
2023/01/03 10:12:42;;;;;;;4.47;2.20;;;9.60;99.90;;;;;;5004014;28;20845;-83
2023/01/03 10:15:23;;;;;;;3.20;1.70;;;9.60;99.90;;;;;;5006735;28;20859;-84
2023/01/03 10:18:05;;;;;;;3.80;1.90;;;9.50;99.90;;;;;;5001434;28;21074;-85
2023/01/03 10:20:44;;;;;;;11.30;6.27;;;9.60;99.90;;;;;;5013069;28;20486;-84
2023/01/03 10:23:11;;;;;;;3.60;1.90;;;9.60;99.90;;;;;;5004617;28;20903;-83
2023/01/03 10:25:41;;;;;;;3.30;1.90;;;9.80;99.90;;;;;;5014885;28;20456;-83
2023/01/03 10:28:16;;;;;;;5.03;2.37;;;9.90;99.90;;;;;;5006342;28;21599;-84
2023/01/03 10:30:58;;;;;;;6.00;2.97;;;10.00;99.90;;;;;;5005088;28;20874;-84
2023/01/03 10:33:32;;;;;;;5.53;2.13;;;10.10;99.90;;;;;;5010856;28;20477;-84
2023/01/03 10:35:59;;;;;;;3.77;1.63;;;10.20;99.90;;;;;;5003703;28;20453;-84
2023/01/03 10:38:27;;;;;;;4.60;2.00;;;10.30;99.90;;;;;;4999710;28;20564;-84
2023/01/03 10:40:56;;;;;;;7.40;2.67;;;10.30;99.90;;;;;;5010366;28;20503;-84
2023/01/03 10:43:28;;;;;;;3.83;1.80;;;10.20;99.90;;;;;;5007727;28;20484;-83
2023/01/03 10:46:01;;;;;;;3.93;1.80;;;10.00;99.90;;;;;;5001758;28;20476;-84
2023/01/03 10:48:36;;;;;;;3.30;1.60;;;10.10;99.90;;;;;;5000374;28;20902;-84
2023/01/03 10:51:05;;;;;;;6.80;2.10;;;10.20;99.90;;;;;;5003960;28;20508;-84
2023/01/03 10:53:40;;;;;;;3.30;1.40;;;10.20;99.90;;;;;;5000971;28;20484;-84
2023/01/03 10:56:07;;;;;;;8.30;1.73;;;10.60;99.90;;;;;;5001878;28;20828;-84
2023/01/03 10:58:34;;;;;;;5.30;2.23;;;11.10;99.90;;;;;;5001763;28;20711;-83
2023/01/03 11:01:20;;;;;;;3.60;1.53;;;11.40;99.90;;;;;;5009643;28;20450;-84
2023/01/03 11:04:07;;;;;;;4.27;1.63;;;11.30;99.90;;;;;;5011269;28;20510;-84
2023/01/03 11:06:34;;;;;;;5.20;1.77;;;11.00;99.90;;;;;;5003898;28;20476;-83
2023/01/03 11:09:04;;;;;;;3.50;1.87;;;11.00;99.90;;;;;;5009024;28;20445;-84
2023/01/03 11:11:33;;;;;;;4.00;1.60;;;11.10;99.90;;;;;;5009486;28;20530;-84
2023/01/03 11:14:33;;;;;;;2.50;1.40;;;11.30;99.90;;;;;;5006633;28;20453;-84
2023/01/03 11:17:03;;;;;;;2.90;1.50;;;11.70;99.90;;;;;;4993135;28;20461;-84
2023/01/03 11:19:33;;;;;;;3.30;1.43;;;11.50;99.90;;;;;;5004449;28;20473;-84
2023/01/03 11:22:13;;;;;;;7.13;1.53;;;11.60;99.90;;;;;;5006524;28;20513;-84
2023/01/03 11:25:15;;;;;;;4.60;1.60;;;11.70;99.90;;;;;;5008562;28;20450;-84
2023/01/03 11:28:09;;;;;;;4.23;2.20;;;11.50;99.90;;;;;;4933074;29;20454;-83
2023/01/03 11:30:43;;;;;;;2.30;1.60;;;11.10;99.90;;;;;;5007345;28;20439;-83
2023/01/03 11:33:28;;;;;;;7.40;1.80;;;11.00;99.90;;;;;;5008467;28;20468;-84
2023/01/03 11:36:26;;;;;;;2.83;1.87;;;10.90;99.90;;;;;;5002485;28;21437;-83
2023/01/03 11:39:03;;;;;;;3.70;1.77;;;10.70;99.90;;;;;;5009507;28;20544;-83
2023/01/03 11:41:53;;;;;;;4.57;1.97;;;10.60;99.90;;;;;;5006283;28;20445;-83
2023/01/03 11:45:01;;;;;;;2.90;2.10;;;10.50;99.90;;;;;;5006061;28;20464;-83
2023/01/03 11:47:37;;;;;;;3.30;1.67;;;10.40;99.90;;;;;;5009727;28;20480;-83
2023/01/03 11:50:18;;;;;;;4.47;1.63;;;10.30;99.90;;;;;;5007729;28;20539;-82
2023/01/03 11:52:50;;;;;;;4.43;1.90;;;10.20;99.90;;;;;;5006788;28;20491;-84
2023/01/03 11:55:40;;;;;;;4.70;1.80;;;10.20;99.90;;;;;;5008434;28;20480;-83
2023/01/03 11:58:35;;;;;;;4.30;2.00;;;10.30;99.90;;;;;;5006887;28;20825;-82
2023/01/03 12:01:13;;;;;;;3.00;1.50;;;10.20;99.90;;;;;;5007067;28;20446;-83
2023/01/03 12:04:02;;;;;;;2.40;1.53;;;10.20;99.90;;;;;;5008570;28;20562;-83
2023/01/03 12:06:36;;;;;;;3.47;1.67;;;10.20;99.90;;;;;;5001161;28;20453;-84
2023/01/03 12:09:15;;;;;;;3.53;1.90;;;10.20;99.90;;;;;;5000445;28;20524;-83
2023/01/03 12:12:10;;;;;;;3.73;2.00;;;10.10;99.90;;;;;;5008071;28;20440;-83
2023/01/03 12:14:41;;;;;;;2.53;1.33;;;10.10;99.90;;;;;;5008671;28;20443;-83
2023/01/03 12:17:13;;;;;;;5.97;2.60;;;10.10;99.90;;;;;;5006127;28;20442;-82
2023/01/03 12:19:55;;;;;;;5.00;2.00;;;10.10;99.90;;;;;;5009384;28;20456;-84
2023/01/03 12:22:30;;;;;;;6.07;2.07;;;10.20;99.90;;;;;;5011499;28;20475;-84
2023/01/03 12:25:02;;;;;;;3.37;2.17;;;10.30;99.90;;;;;;5007967;28;20899;-82
2023/01/03 12:27:35;;;;;;;6.00;2.00;;;10.50;99.90;;;;;;5004650;28;20522;-82
2023/01/03 12:30:07;;;;;;;2.37;1.50;;;10.70;99.90;;;;;;5006984;28;20463;-83
2023/01/03 12:32:42;;;;;;;2.67;1.90;;;10.80;99.90;;;;;;5000378;28;20487;-83
2023/01/03 12:35:22;;;;;;;3.10;1.43;;;10.90;99.90;;;;;;5005046;28;20480;-83
2023/01/03 12:37:51;;;;;;;3.93;1.77;;;11.00;99.90;;;;;;4994998;28;20741;-81
2023/01/03 12:40:26;;;;;;;3.80;1.67;;;11.00;99.90;;;;;;4993835;28;20581;-83
2023/01/03 12:43:02;;;;;;;4.20;1.80;;;11.00;99.90;;;;;;4995018;28;20484;-83
2023/01/03 12:45:41;;;;;;;3.13;1.73;;;11.10;99.90;;;;;;4994942;28;20457;-83
2023/01/03 12:48:20;;;;;;;4.87;1.80;;;11.30;99.90;;;;;;4994151;28;20454;-83
2023/01/03 12:50:49;;;;;;;2.60;1.33;;;11.50;99.90;;;;;;4995155;28;20456;-83
2023/01/03 12:53:26;;;;;;;5.03;1.30;;;11.90;99.90;;;;;;5034052;23;20506;-81
2023/01/03 12:56:10;;;;;;;3.17;1.67;;;11.80;99.90;;;;;;5058293;28;21050;-81
2023/01/03 12:58:49;;;;;;;4.67;1.73;;;11.60;99.90;;;;;;5057241;28;20482;-79
2023/01/03 13:01:22;;;;;;;5.40;1.83;;;11.40;99.90;;;;;;5057755;28;20446;-80
2023/01/03 13:03:54;;;;;;;2.80;1.57;;;11.50;99.90;;;;;;5058025;28;20474;-79
2023/01/03 13:06:24;;;;;;;4.40;1.20;;;11.60;99.90;;;;;;5058277;28;20455;-80
2023/01/03 13:08:58;;;;;;;4.00;1.60;;;11.60;99.90;;;;;;5057493;28;20448;-81
2023/01/03 13:11:30;;;;;;;2.50;1.30;;;11.60;99.90;;;;;;5058177;28;20490;-81
2023/01/03 13:14:02;;;;;;;4.10;1.40;;;11.50;99.90;;;;;;5044405;28;20484;-81
2023/01/03 13:16:44;;;;;;;2.73;1.00;;;11.70;99.90;;;;;;5037294;28;20451;-81
2023/01/03 13:20:02;;;;;;;7.30;1.30;;;11.70;99.90;;;;;;5037359;28;20473;-81
2023/01/03 13:22:48;;;;;;;5.67;1.30;;;11.40;99.90;;;;;;5039174;28;20882;-80
2023/01/03 13:25:41;;;;;;;2.93;1.00;;;11.10;99.90;;;;;;5057796;28;20958;-81
2023/01/03 13:28:30;;;;;;;2.60;1.13;;;10.90;99.90;;;;;;5042260;28;20527;-81
2023/01/03 13:31:46;;;;;;;2.77;1.17;;;10.80;99.90;;;;;;5056683;28;20460;-80
2023/01/03 13:34:34;;;;;;;7.57;1.80;;;10.60;99.90;;;;;;5041921;28;20901;-81
2023/01/03 13:37:22;;;;;;;2.80;1.03;;;10.60;99.90;;;;;;5048230;28;20941;-81
2023/01/03 13:40:21;;;;;;;2.83;0.93;;;10.50;99.90;;;;;;5053091;28;20486;-82
2023/01/03 13:43:01;;;;;;;9.83;4.60;;;10.50;99.90;;;;;;5060561;28;20472;-80
2023/01/03 13:45:56;;;;;;;2.37;0.80;;;10.40;99.90;;;;;;5055868;28;20452;-80
2023/01/03 13:48:33;;;;;;;1.93;0.77;;;10.30;99.90;;;;;;5053853;28;20827;-80
2023/01/03 13:51:22;;;;;;;4.00;1.10;;;10.30;99.90;;;;;;5058558;28;20462;-79
2023/01/03 13:53:59;;;;;;;2.80;1.10;;;10.30;99.90;;;;;;5061696;28;20482;-80
2023/01/03 13:56:29;;;;;;;4.43;0.90;;;10.40;99.90;;;;;;5060318;28;20487;-81
2023/01/03 13:59:10;;;;;;;4.60;2.10;;;10.60;99.90;;;;;;5071392;28;20478;-81
2023/01/03 14:01:55;;;;;;;3.23;1.93;;;10.80;99.90;;;;;;5060621;28;20446;-80
2023/01/03 14:04:58;;;;;;;5.07;1.17;;;10.90;99.90;;;;;;5054489;28;20479;-81
2023/01/03 14:07:56;;;;;;;2.03;1.30;;;11.00;99.90;;;;;;5058942;28;20458;-81
2023/01/03 14:10:40;;;;;;;4.13;1.60;;;10.90;99.90;;;;;;5059759;28;20477;-80
2023/01/03 14:13:38;;;;;;;1.97;0.87;;;10.80;99.90;;;;;;5058453;28;21032;-79
2023/01/03 14:16:25;;;;;;;3.13;1.30;;;10.80;99.90;;;;;;5061826;28;20459;-80
2023/01/03 14:19:00;;;;;;;4.20;1.30;;;10.70;99.90;;;;;;5062332;28;20477;-81